Terminal Aerodrome Forecast
Issued by NWS

Home | Current Version | Previous Version | Text Only | Print | Product List | Glossary On
Versions: 1 2 3 4 5 6 7 8 9 10 11 12 13 14
000
FTUS41 KRNK 281725
TAFBCB
TAF
KBCB 281725Z 2818/0118 VRB04KT P6SM VCSH BKN070
     FM010000 18004KT P6SM OVC040
      TEMPO 0100/0102 3SM -SHRA OVC025
     FM010600 21004KT P6SM SCT020 BKN030
     FM011600 23011KT P6SM BKN150=

USA.gov is the U.S. government's official web portal to all federal, state and local government web resources and services.